createdAt,value
2023-03-12T00:02:39.894Z,5.00
2023-03-12T00:05:45.203Z,4.80
2023-03-12T00:08:49.333Z,5.00
2023-03-12T00:11:53.299Z,5.10
2023-03-12T00:14:57.264Z,4.80
2023-03-12T00:18:01.177Z,5.80
2023-03-12T00:21:05.493Z,6.40
2023-03-12T00:24:09.504Z,5.70
2023-03-12T00:27:13.446Z,6.30
2023-03-12T00:30:17.645Z,7.40
2023-03-12T00:33:21.766Z,6.60
2023-03-12T00:36:28.834Z,6.30
2023-03-12T00:39:32.861Z,6.90
2023-03-12T00:42:37.083Z,5.40
2023-03-12T00:45:41.096Z,7.50
2023-03-12T00:48:46.015Z,6.20
2023-03-12T00:54:58.332Z,6.00
2023-03-12T00:58:02.898Z,6.90
2023-03-12T01:01:07.166Z,7.70
2023-03-12T01:04:12.096Z,6.80
2023-03-12T01:07:16.069Z,6.50
2023-03-12T01:10:21.123Z,6.20
2023-03-12T01:13:25.123Z,7.50
2023-03-12T01:16:30.449Z,6.30
2023-03-12T01:19:34.655Z,7.20
2023-03-12T01:22:40.132Z,6.40
2023-03-12T01:25:44.159Z,6.30
2023-03-12T01:28:48.278Z,5.80
2023-03-12T01:31:53.041Z,6.20
2023-03-12T01:34:58.648Z,5.20
2023-03-12T01:38:02.678Z,5.20
2023-03-12T01:41:06.797Z,6.50
2023-03-12T01:44:14.704Z,5.60
2023-03-12T01:47:19.301Z,7.30
2023-03-12T01:50:23.652Z,6.30
2023-03-12T01:53:30.051Z,6.50
2023-03-12T01:56:36.791Z,4.70
2023-03-12T01:59:54.423Z,4.50
2023-03-12T02:03:03.068Z,6.10
2023-03-12T02:06:15.296Z,4.60
2023-03-12T02:09:21.549Z,5.80
2023-03-12T02:12:25.889Z,4.50
2023-03-12T02:15:30.266Z,4.80
2023-03-12T02:18:35.443Z,4.50
2023-03-12T02:21:39.752Z,4.60
2023-03-12T02:25:04.580Z,5.40
2023-03-12T02:28:12.940Z,4.90
2023-03-12T02:31:25.854Z,5.20
2023-03-12T02:34:30.324Z,4.20
2023-03-12T02:37:34.448Z,4.40
2023-03-12T02:40:44.676Z,5.20
2023-03-12T02:44:02.236Z,4.40
2023-03-12T02:47:06.764Z,4.10
2023-03-12T02:50:11.783Z,4.50
2023-03-12T02:53:16.013Z,5.00
2023-03-12T02:56:24.877Z,4.10
2023-03-12T02:59:29.794Z,4.30
2023-03-12T03:02:34.793Z,4.70
2023-03-12T03:05:39.467Z,4.50
2023-03-12T03:08:43.565Z,3.50
2023-03-12T03:11:48.612Z,3.90
2023-03-12T03:14:52.539Z,3.80
2023-03-12T03:17:56.536Z,4.90
2023-03-12T03:21:11.115Z,4.00
2023-03-12T03:24:15.232Z,4.90
2023-03-12T03:27:20.686Z,4.40
2023-03-12T03:30:24.800Z,4.40
2023-03-12T03:33:31.384Z,4.30
2023-03-12T03:36:35.495Z,4.20
2023-03-12T03:39:46.751Z,4.70
2023-03-12T03:42:51.010Z,3.20
2023-03-12T03:46:04.739Z,4.40
2023-03-12T03:52:17.281Z,4.10
2023-03-12T03:55:21.537Z,4.80
2023-03-12T03:58:25.724Z,4.60
2023-03-12T04:01:31.513Z,4.70
2023-03-12T04:04:36.028Z,4.10
2023-03-12T04:07:40.459Z,4.60
2023-03-12T04:10:44.759Z,4.40
2023-03-12T04:13:50.203Z,4.40
2023-03-12T04:16:55.756Z,4.20
2023-03-12T04:19:59.886Z,6.10
2023-03-12T04:23:04.193Z,4.00
2023-03-12T04:26:08.920Z,4.00
2023-03-12T04:29:14.134Z,4.10
2023-03-12T04:32:18.578Z,4.30
2023-03-12T04:35:22.799Z,4.80
2023-03-12T04:38:27.529Z,3.90
2023-03-12T04:41:32.078Z,4.50
2023-03-12T04:44:43.263Z,4.70
2023-03-12T04:47:47.948Z,4.30
2023-03-12T04:50:53.012Z,3.80
2023-03-12T04:53:57.672Z,4.20
2023-03-12T04:57:03.243Z,3.70
2023-03-12T05:00:13.259Z,4.50
2023-03-12T05:03:18.321Z,3.70
2023-03-12T05:06:23.959Z,3.50
2023-03-12T05:09:28.305Z,4.40
2023-03-12T05:12:32.416Z,4.30
2023-03-12T05:15:37.743Z,3.70
2023-03-12T05:18:42.756Z,3.90
2023-03-12T05:21:46.986Z,4.30
2023-03-12T05:24:51.250Z,4.20
2023-03-12T05:27:56.383Z,3.90
2023-03-12T05:31:01.822Z,2.80
2023-03-12T05:34:06.409Z,3.60
2023-03-12T05:37:13.851Z,4.60
2023-03-12T05:43:23.325Z,3.30
2023-03-12T05:46:28.584Z,3.30
2023-03-12T05:49:32.836Z,3.60
2023-03-12T05:52:36.909Z,3.00
2023-03-12T05:55:41.610Z,3.70
2023-03-12T05:58:49.859Z,2.70
2023-03-12T06:01:55.021Z,4.50
2023-03-12T06:04:59.334Z,3.80
2023-03-12T06:08:04.742Z,3.00
2023-03-12T06:11:09.150Z,3.40
2023-03-12T06:14:14.834Z,4.50
2023-03-12T06:17:19.032Z,3.80
2023-03-12T06:20:23.579Z,3.10
2023-03-12T06:23:27.546Z,3.90
2023-03-12T06:26:32.208Z,3.30
2023-03-12T06:29:36.272Z,3.30
2023-03-12T06:32:40.336Z,3.10
2023-03-12T06:35:45.636Z,2.20
2023-03-12T06:38:49.919Z,2.90
2023-03-12T06:41:53.948Z,2.80
2023-03-12T06:44:57.857Z,2.70
2023-03-12T06:48:01.775Z,3.40
2023-03-12T06:51:06.489Z,3.20
2023-03-12T06:54:10.523Z,3.10
2023-03-12T06:57:16.800Z,2.70
2023-03-12T07:00:21.577Z,2.50
2023-03-12T07:06:29.966Z,2.60
2023-03-12T07:09:34.173Z,3.30
2023-03-12T07:12:38.246Z,3.40
2023-03-12T07:15:42.507Z,4.20
2023-03-12T07:18:46.557Z,4.10
2023-03-12T07:21:50.564Z,4.40
2023-03-12T07:24:54.583Z,4.00
2023-03-12T07:27:58.602Z,3.00
2023-03-12T07:31:04.818Z,3.40
2023-03-12T07:34:09.127Z,2.60
2023-03-12T07:37:13.187Z,3.00
2023-03-12T07:40:17.319Z,3.40
2023-03-12T07:43:22.050Z,2.70
2023-03-12T07:46:27.920Z,2.40
2023-03-12T07:49:31.930Z,2.60
2023-03-12T07:52:36.015Z,2.80
2023-03-12T07:55:40.065Z,3.20
2023-03-12T07:58:44.391Z,2.70
2023-03-12T08:01:48.839Z,2.90
2023-03-12T08:04:52.983Z,2.20
2023-03-12T08:07:57.123Z,2.10
2023-03-12T08:11:01.074Z,2.20
2023-03-12T08:14:05.359Z,2.60
2023-03-12T08:17:09.394Z,2.30
2023-03-12T08:20:13.506Z,1.70
2023-03-12T08:23:18.148Z,2.10
2023-03-12T08:29:26.586Z,2.10
2023-03-12T08:32:30.610Z,2.40
2023-03-12T08:35:34.752Z,2.70
2023-03-12T08:38:39.260Z,2.70
2023-03-12T08:44:47.176Z,2.10
2023-03-12T08:47:51.131Z,2.30
2023-03-12T08:51:00.088Z,2.70
2023-03-12T08:54:05.470Z,2.40
2023-03-12T08:57:09.593Z,2.60
2023-03-12T09:00:16.258Z,2.50
2023-03-12T09:03:21.676Z,2.90
2023-03-12T09:06:25.712Z,2.50
2023-03-12T09:09:29.966Z,2.20
2023-03-12T09:12:33.976Z,1.90
2023-03-12T09:15:37.863Z,1.70
2023-03-12T09:18:41.786Z,2.60
2023-03-12T09:21:45.720Z,1.70
2023-03-12T09:24:49.825Z,1.90
2023-03-12T09:27:53.838Z,2.20
2023-03-12T09:30:57.764Z,1.90
2023-03-12T09:34:01.971Z,2.90
2023-03-12T09:37:05.988Z,2.70
2023-03-12T09:40:19.423Z,2.50
2023-03-12T09:43:30.289Z,3.10
2023-03-12T09:46:44.865Z,3.10
2023-03-12T09:49:54.656Z,2.60
2023-03-12T09:53:32.114Z,2.40
2023-03-12T09:56:36.128Z,2.60
2023-03-12T09:59:40.090Z,2.90
2023-03-12T10:03:02.575Z,2.00
2023-03-12T10:06:20.484Z,2.30
2023-03-12T10:09:42.677Z,2.90
2023-03-12T10:12:52.723Z,3.20
2023-03-12T10:16:20.766Z,2.70
2023-03-12T10:20:07.838Z,2.60
2023-03-12T10:23:49.642Z,2.20
2023-03-12T10:26:57.123Z,2.30
2023-03-12T10:30:02.942Z,2.40
2023-03-12T10:33:13.832Z,1.80
2023-03-12T10:36:22.705Z,1.80
2023-03-12T10:39:27.025Z,1.80
2023-03-12T10:42:31.254Z,1.90
2023-03-12T10:46:01.916Z,2.10
2023-03-12T10:49:38.574Z,1.60
2023-03-12T10:52:43.268Z,2.20
2023-03-12T10:59:22.079Z,1.30
2023-03-12T11:02:30.490Z,1.60
2023-03-12T11:05:45.339Z,1.90
2023-03-12T11:09:19.358Z,2.00
2023-03-12T11:12:27.166Z,1.70
2023-03-12T11:15:43.502Z,2.10
2023-03-12T11:19:05.098Z,1.60
2023-03-12T11:22:11.824Z,1.40
2023-03-12T11:25:28.261Z,1.70
2023-03-12T11:28:38.807Z,1.60
2023-03-12T11:31:57.784Z,1.80
2023-03-12T11:35:02.543Z,1.90
2023-03-12T11:38:33.247Z,1.70
2023-03-12T11:42:14.914Z,2.20
2023-03-12T11:45:44.936Z,1.40
2023-03-12T11:49:11.829Z,2.00
2023-03-12T11:52:48.046Z,1.60
2023-03-12T11:56:07.214Z,1.20
2023-03-12T11:59:43.483Z,1.70
2023-03-12T12:02:56.459Z,1.70
2023-03-12T12:06:25.207Z,1.80
2023-03-12T12:10:08.249Z,2.20
2023-03-12T12:13:30.940Z,2.00
2023-03-12T12:17:11.463Z,2.10
2023-03-12T12:20:50.911Z,2.00
2023-03-12T12:24:20.433Z,1.70
2023-03-12T12:27:27.213Z,1.80
2023-03-12T12:30:46.276Z,1.80
2023-03-12T12:34:16.070Z,1.60
2023-03-12T12:37:48.524Z,1.60
2023-03-12T12:41:18.092Z,1.70
2023-03-12T12:44:31.082Z,1.20
2023-03-12T12:47:45.387Z,1.60
2023-03-12T12:50:51.994Z,1.50
2023-03-12T12:54:02.008Z,1.50
2023-03-12T12:57:16.120Z,1.70
2023-03-12T13:00:24.898Z,1.80
2023-03-12T13:03:30.817Z,1.70
2023-03-12T13:07:13.678Z,1.80
2023-03-12T13:10:32.716Z,1.90
2023-03-12T13:13:36.763Z,1.80
2023-03-12T13:16:43.301Z,1.40
2023-03-12T13:20:00.917Z,1.90
2023-03-12T13:23:26.492Z,1.60
2023-03-12T13:26:52.255Z,1.90
2023-03-12T13:29:57.384Z,1.50
2023-03-12T13:33:01.937Z,1.70
2023-03-12T13:36:23.852Z,1.50
2023-03-12T13:39:32.117Z,1.30
2023-03-12T13:42:40.081Z,1.70
2023-03-12T13:46:06.971Z,2.10
2023-03-12T13:49:14.189Z,1.80
2023-03-12T13:52:23.662Z,1.90
2023-03-12T13:55:33.688Z,1.90
2023-03-12T13:58:57.398Z,1.90
2023-03-12T14:02:08.144Z,2.10
2023-03-12T14:05:15.691Z,2.30
2023-03-12T14:08:47.417Z,1.80
2023-03-12T14:11:57.918Z,1.60
2023-03-12T14:15:21.686Z,2.00
2023-03-12T14:18:28.576Z,2.20
2023-03-12T14:21:40.061Z,2.00
2023-03-12T14:24:56.016Z,2.50
2023-03-12T14:28:01.675Z,2.20
2023-03-12T14:31:10.590Z,1.80
2023-03-12T14:34:21.521Z,1.50
2023-03-12T14:37:36.566Z,1.90
2023-03-12T14:40:46.219Z,2.10
2023-03-12T14:44:04.832Z,2.50
2023-03-12T14:47:11.709Z,2.00
2023-03-12T14:50:40.343Z,1.70
2023-03-12T14:53:44.358Z,1.90
2023-03-12T14:56:48.369Z,1.70
2023-03-12T14:59:57.868Z,1.70
2023-03-12T15:03:10.536Z,1.80
2023-03-12T15:06:39.928Z,1.50
2023-03-12T15:09:48.147Z,2.30
2023-03-12T15:12:55.351Z,2.40
2023-03-12T15:15:59.780Z,1.70
2023-03-12T15:19:04.778Z,2.00
2023-03-12T15:22:16.825Z,1.80
2023-03-12T15:25:32.259Z,1.90
2023-03-12T15:28:37.035Z,2.30
2023-03-12T15:31:47.060Z,1.90
2023-03-12T15:34:52.607Z,1.90
2023-03-12T15:37:56.749Z,2.20
2023-03-12T15:41:09.388Z,1.80
2023-03-12T15:44:19.750Z,1.80
2023-03-12T15:47:27.010Z,2.50
2023-03-12T15:50:42.731Z,2.60
2023-03-12T15:53:58.724Z,2.10
2023-03-12T15:57:20.881Z,2.20
2023-03-12T16:00:45.723Z,1.80
2023-03-12T16:03:49.891Z,2.70
2023-03-12T16:06:54.118Z,2.20
2023-03-12T16:09:58.098Z,2.80
2023-03-12T16:13:04.806Z,2.60
2023-03-12T16:16:13.849Z,2.50
2023-03-12T16:19:21.067Z,3.20
2023-03-12T16:22:25.121Z,3.20
2023-03-12T16:25:29.188Z,4.30
2023-03-12T16:28:36.150Z,4.30
2023-03-12T16:31:40.181Z,5.40
2023-03-12T16:34:45.243Z,5.10
2023-03-12T16:37:49.264Z,3.50
2023-03-12T16:40:53.944Z,3.40
2023-03-12T16:47:03.009Z,3.70
2023-03-12T16:50:25.777Z,3.30
2023-03-12T16:53:29.979Z,4.40
2023-03-12T16:56:36.320Z,4.00
2023-03-12T16:59:40.252Z,5.80
2023-03-12T17:02:44.469Z,5.60
2023-03-12T17:05:48.509Z,5.20
2023-03-12T17:08:54.358Z,5.80
2023-03-12T17:11:58.782Z,5.80
2023-03-12T17:15:15.580Z,4.70
2023-03-12T17:18:20.724Z,5.00
2023-03-12T17:21:24.966Z,4.60
2023-03-12T17:24:29.017Z,5.90
2023-03-12T17:27:33.402Z,4.70
2023-03-12T17:30:38.632Z,5.00
2023-03-12T17:33:43.379Z,5.00
2023-03-12T17:36:47.906Z,5.00
2023-03-12T17:39:51.824Z,4.20
2023-03-12T17:42:55.935Z,4.60
2023-03-12T17:46:05.191Z,5.00
2023-03-12T17:49:09.603Z,6.20
2023-03-12T17:52:13.840Z,5.50
2023-03-12T17:55:18.047Z,5.60
2023-03-12T17:58:22.165Z,6.00
2023-03-12T18:01:26.381Z,5.80
2023-03-12T18:04:30.546Z,6.90
2023-03-12T18:07:34.970Z,6.30
2023-03-12T18:10:40.619Z,6.40
2023-03-12T18:13:47.574Z,6.80
2023-03-12T18:16:51.581Z,6.80
2023-03-12T18:19:55.802Z,6.20
2023-03-12T18:22:59.919Z,7.10
2023-03-12T18:26:04.442Z,7.20
2023-03-12T18:29:08.462Z,7.70
2023-03-12T18:32:12.481Z,9.00
2023-03-12T18:35:16.627Z,7.70
2023-03-12T18:38:20.718Z,7.30
2023-03-12T18:41:30.445Z,8.30
2023-03-12T18:44:34.488Z,7.20
2023-03-12T18:47:42.100Z,7.20
2023-03-12T18:50:46.208Z,7.00
2023-03-12T18:53:50.134Z,7.40
2023-03-12T18:56:54.533Z,6.90
2023-03-12T18:59:59.483Z,6.70
2023-03-12T19:03:03.728Z,6.50
2023-03-12T19:06:14.270Z,7.20
2023-03-12T19:09:18.712Z,7.10
2023-03-12T19:12:22.827Z,5.90
2023-03-12T19:15:26.959Z,6.70
2023-03-12T19:18:31.116Z,6.40
2023-03-12T19:21:35.067Z,5.30
2023-03-12T19:24:41.543Z,5.70
2023-03-12T19:27:45.847Z,6.10
2023-03-12T19:30:49.882Z,6.50
2023-03-12T19:33:54.400Z,5.90
2023-03-12T19:36:58.425Z,7.20
2023-03-12T19:40:02.325Z,5.30
2023-03-12T19:43:06.351Z,7.40
2023-03-12T19:46:10.621Z,8.50
2023-03-12T19:49:14.605Z,6.30
2023-03-12T19:52:19.840Z,6.30
2023-03-12T19:55:23.781Z,9.60
2023-03-12T19:58:28.272Z,9.80
2023-03-12T20:01:32.209Z,10.70
2023-03-12T20:04:36.196Z,11.90
2023-03-12T20:07:40.215Z,14.10
2023-03-12T20:10:44.249Z,13.60
2023-03-12T20:13:48.164Z,14.20
2023-03-12T20:16:52.196Z,15.10
2023-03-12T20:19:56.192Z,14.20
2023-03-12T20:23:00.182Z,14.10
2023-03-12T20:26:04.485Z,12.90
2023-03-12T20:29:08.526Z,14.40
2023-03-12T20:32:13.737Z,16.30
2023-03-12T20:35:17.992Z,16.40
2023-03-12T20:38:22.006Z,17.10
2023-03-12T20:41:26.122Z,14.60
2023-03-12T20:44:30.015Z,14.40
2023-03-12T20:47:34.673Z,16.00
2023-03-12T20:50:39.391Z,12.20
2023-03-12T20:53:43.709Z,10.80
2023-03-12T20:56:47.673Z,11.00
2023-03-12T20:59:51.903Z,11.70
2023-03-12T21:02:56.248Z,11.70
2023-03-12T21:06:02.121Z,11.70
2023-03-12T21:09:06.278Z,12.80
2023-03-12T21:12:10.292Z,16.40
2023-03-12T21:15:14.297Z,19.50
2023-03-12T21:18:18.527Z,23.70
2023-03-12T21:21:23.358Z,28.10
2023-03-12T21:24:27.369Z,27.90
2023-03-12T21:27:38.412Z,25.90
2023-03-12T21:30:48.733Z,28.70
2023-03-12T21:33:59.212Z,29.00
2023-03-12T21:37:03.192Z,25.10
2023-03-12T21:40:09.193Z,23.20
2023-03-12T21:43:13.171Z,27.00
2023-03-12T21:46:20.112Z,23.50
2023-03-12T21:49:24.264Z,28.20
2023-03-12T21:52:28.596Z,27.90
2023-03-12T21:55:32.612Z,27.80
2023-03-12T21:58:37.306Z,25.60
2023-03-12T22:01:41.554Z,21.80
2023-03-12T22:04:45.608Z,20.60
2023-03-12T22:07:49.589Z,18.30
2023-03-12T22:10:53.579Z,21.40
2023-03-12T22:13:57.713Z,23.90
2023-03-12T22:17:01.746Z,21.30
2023-03-12T22:20:07.934Z,21.50
2023-03-12T22:23:11.945Z,21.00
2023-03-12T22:26:15.925Z,22.10
2023-03-12T22:29:19.962Z,20.60
2023-03-12T22:32:25.814Z,19.40
2023-03-12T22:35:29.828Z,19.60
2023-03-12T22:38:36.610Z,18.20
2023-03-12T22:41:40.631Z,17.10
2023-03-12T22:44:44.638Z,13.00
2023-03-12T22:47:48.581Z,13.60
2023-03-12T22:50:53.658Z,11.80
2023-03-12T22:53:58.028Z,12.10
2023-03-12T22:57:02.065Z,10.70
2023-03-12T23:00:10.605Z,11.60
2023-03-12T23:03:14.565Z,12.30
2023-03-12T23:06:21.767Z,13.30
2023-03-12T23:09:25.770Z,12.60
2023-03-12T23:12:30.306Z,14.60
2023-03-12T23:15:40.957Z,13.70
2023-03-12T23:18:46.550Z,10.30
2023-03-12T23:21:50.541Z,10.80
2023-03-12T23:24:54.572Z,10.30
2023-03-12T23:27:58.546Z,11.40
2023-03-12T23:31:07.662Z,9.60
2023-03-12T23:34:11.725Z,8.90
2023-03-12T23:37:16.040Z,8.70
2023-03-12T23:40:19.985Z,7.60
2023-03-12T23:43:23.929Z,8.50
2023-03-12T23:46:28.096Z,9.50
2023-03-12T23:49:32.133Z,8.60
2023-03-12T23:52:36.139Z,8.40
2023-03-12T23:55:40.149Z,8.30
2023-03-12T23:58:44.780Z,8.30
